createdAt,value
2017-08-06T00:01:43.712Z,99170
2017-08-06T00:04:11.784Z,99178
2017-08-06T00:06:39.855Z,99179
2017-08-06T00:09:07.926Z,99184
2017-08-06T00:11:36.015Z,99184
2017-08-06T00:14:04.085Z,99180
2017-08-06T00:16:32.158Z,99188
2017-08-06T00:19:00.228Z,99187
2017-08-06T00:21:28.290Z,99198
2017-08-06T00:23:56.366Z,99188
2017-08-06T00:26:24.430Z,99193
2017-08-06T00:28:52.506Z,99193
2017-08-06T00:31:20.581Z,99196
2017-08-06T00:33:48.655Z,99203
2017-08-06T00:36:16.723Z,99198
2017-08-06T00:38:44.791Z,99208
2017-08-06T00:41:12.867Z,99208
2017-08-06T00:43:40.940Z,99216
2017-08-06T00:46:09.011Z,99214
2017-08-06T00:48:37.075Z,99213
2017-08-06T00:51:05.158Z,99219
2017-08-06T00:53:33.219Z,99227
2017-08-06T00:56:01.300Z,99224
2017-08-06T00:58:29.373Z,99229
2017-08-06T01:00:57.447Z,99229
2017-08-06T01:03:25.531Z,99224
2017-08-06T01:05:53.602Z,99215
2017-08-06T01:08:21.668Z,99221
2017-08-06T01:10:49.751Z,99219
2017-08-06T01:13:17.845Z,99216
2017-08-06T01:15:45.901Z,99221
2017-08-06T01:18:13.962Z,99215
2017-08-06T01:20:42.044Z,99210
2017-08-06T01:23:10.111Z,99227
2017-08-06T01:25:38.175Z,99225
2017-08-06T01:28:06.252Z,99233
2017-08-06T01:30:34.311Z,99236
2017-08-06T01:33:02.388Z,99238
2017-08-06T01:35:30.460Z,99242
2017-08-06T01:37:58.531Z,99244
2017-08-06T01:40:26.605Z,99249
2017-08-06T01:42:54.678Z,99254
2017-08-06T01:45:22.740Z,99257
2017-08-06T01:47:50.813Z,99255
2017-08-06T01:50:18.879Z,99261
2017-08-06T01:52:46.964Z,99259
2017-08-06T01:55:15.030Z,99258
2017-08-06T01:57:43.095Z,99260
2017-08-06T02:00:11.166Z,99257
2017-08-06T02:02:39.238Z,99262
2017-08-06T02:05:07.303Z,99262
2017-08-06T02:07:35.379Z,99282
2017-08-06T02:10:03.446Z,99273
2017-08-06T02:12:32.339Z,99269
2017-08-06T02:15:00.411Z,99272
2017-08-06T02:17:28.480Z,99275
2017-08-06T02:19:56.554Z,99276
2017-08-06T02:22:24.633Z,99276
2017-08-06T02:24:52.702Z,99279
2017-08-06T02:27:20.773Z,99278
2017-08-06T02:29:48.856Z,99280
2017-08-06T02:32:16.947Z,99285
2017-08-06T02:34:45.002Z,99284
2017-08-06T02:37:13.074Z,99282
2017-08-06T02:39:41.142Z,99298
2017-08-06T02:42:09.228Z,99296
2017-08-06T02:44:37.307Z,99297
2017-08-06T02:47:05.375Z,99308
2017-08-06T02:49:33.447Z,99308
2017-08-06T02:52:01.524Z,99314
2017-08-06T02:54:29.592Z,99312
2017-08-06T02:56:57.680Z,99314
2017-08-06T02:59:25.747Z,99318
2017-08-06T03:01:53.841Z,99313
2017-08-06T03:04:21.934Z,99310
2017-08-06T03:06:49.991Z,99311
2017-08-06T03:09:18.065Z,99312
2017-08-06T03:11:46.894Z,99315
2017-08-06T03:14:14.978Z,99316
2017-08-06T03:16:43.051Z,99317
2017-08-06T03:19:11.125Z,99326
2017-08-06T03:21:39.224Z,99338
2017-08-06T03:24:07.295Z,99331
2017-08-06T03:26:35.373Z,99337
2017-08-06T03:29:03.459Z,99338
2017-08-06T03:31:31.523Z,99338
2017-08-06T03:33:59.583Z,99343
2017-08-06T03:36:27.655Z,99334
2017-08-06T03:38:55.727Z,99347
2017-08-06T03:41:23.816Z,99353
2017-08-06T03:43:51.890Z,99347
2017-08-06T03:46:19.958Z,99344
2017-08-06T03:48:48.023Z,99350
2017-08-06T03:51:16.115Z,99350
2017-08-06T03:53:44.942Z,99349
2017-08-06T03:56:13.014Z,99342
2017-08-06T03:58:41.085Z,99338
2017-08-06T04:01:09.158Z,99343
2017-08-06T04:03:37.248Z,99344
2017-08-06T04:06:05.323Z,99348
2017-08-06T04:08:33.388Z,99352
2017-08-06T04:11:01.471Z,99350
2017-08-06T04:13:29.531Z,99353
2017-08-06T04:15:57.591Z,99358
2017-08-06T04:18:25.677Z,99360
2017-08-06T04:20:53.748Z,99365
2017-08-06T04:23:21.822Z,99365
2017-08-06T04:25:49.891Z,99365
2017-08-06T04:28:17.969Z,99361
2017-08-06T04:30:46.027Z,99357
2017-08-06T04:33:14.100Z,99369
2017-08-06T04:35:42.171Z,99355
2017-08-06T04:38:10.242Z,99364
2017-08-06T04:40:38.310Z,99365
2017-08-06T04:43:06.391Z,99375
2017-08-06T04:45:34.459Z,99380
2017-08-06T04:48:02.535Z,99383
2017-08-06T04:50:30.619Z,99385
2017-08-06T04:52:58.679Z,99386
2017-08-06T04:55:26.776Z,99387
2017-08-06T04:57:54.851Z,99393
2017-08-06T05:00:22.931Z,99393
2017-08-06T05:02:50.992Z,99395
2017-08-06T05:05:19.066Z,99393
2017-08-06T05:07:47.139Z,99402
2017-08-06T05:10:15.224Z,99412
2017-08-06T05:12:43.295Z,99408
2017-08-06T05:15:11.374Z,99408
2017-08-06T05:17:40.218Z,99400
2017-08-06T05:20:08.292Z,99403
2017-08-06T05:22:36.380Z,99409
2017-08-06T05:25:04.456Z,99407
2017-08-06T05:27:32.530Z,99408
2017-08-06T05:30:00.608Z,99403
2017-08-06T05:32:28.684Z,99396
2017-08-06T05:34:56.746Z,99407
2017-08-06T05:37:24.887Z,99413
2017-08-06T05:39:52.947Z,99405
2017-08-06T05:42:21.030Z,99419
2017-08-06T05:44:49.135Z,99409
2017-08-06T05:47:17.215Z,99412
2017-08-06T05:49:45.299Z,99423
2017-08-06T05:52:13.830Z,99431
2017-08-06T05:54:41.927Z,99430
2017-08-06T05:57:10.002Z,99435
2017-08-06T05:59:38.074Z,99444
2017-08-06T06:02:06.436Z,99445
2017-08-06T06:04:34.510Z,99438
2017-08-06T06:07:02.603Z,99442
2017-08-06T06:09:30.696Z,99445
2017-08-06T06:11:58.784Z,99442
2017-08-06T06:14:26.881Z,99456
2017-08-06T06:16:54.973Z,99452
2017-08-06T06:19:23.096Z,99458
2017-08-06T06:21:51.194Z,99459
2017-08-06T06:24:20.032Z,99461
2017-08-06T06:26:48.112Z,99461
2017-08-06T06:29:16.188Z,99459
2017-08-06T06:31:44.289Z,99456
2017-08-06T06:34:13.136Z,99457
2017-08-06T06:36:41.208Z,99457
2017-08-06T06:39:09.280Z,99458
2017-08-06T06:41:37.399Z,99471
2017-08-06T06:44:06.235Z,99468
2017-08-06T06:46:34.322Z,99476
2017-08-06T06:49:02.389Z,99476
2017-08-06T06:51:30.865Z,99473
2017-08-06T06:53:58.935Z,99478
2017-08-06T06:56:27.007Z,99490
2017-08-06T06:58:55.099Z,99479
2017-08-06T07:01:23.383Z,99495
2017-08-06T07:03:52.121Z,99500
2017-08-06T07:06:20.183Z,99494
2017-08-06T07:08:48.302Z,99500
2017-08-06T07:11:16.376Z,99493
2017-08-06T07:13:44.446Z,99491
2017-08-06T07:16:12.512Z,99490
2017-08-06T07:18:40.582Z,99490
2017-08-06T07:21:08.654Z,99487
2017-08-06T07:23:36.743Z,99489
2017-08-06T07:26:04.814Z,99480
2017-08-06T07:28:32.891Z,99490
2017-08-06T07:31:00.963Z,99494
2017-08-06T07:33:29.031Z,99490
2017-08-06T07:35:57.086Z,99495
2017-08-06T07:38:25.195Z,99500
2017-08-06T07:40:53.267Z,99484
2017-08-06T07:43:21.338Z,99492
2017-08-06T07:45:49.419Z,99490
2017-08-06T07:48:17.487Z,99485
2017-08-06T07:50:45.554Z,99487
2017-08-06T07:53:13.619Z,99495
2017-08-06T07:55:41.693Z,99488
2017-08-06T07:58:09.763Z,99493
2017-08-06T08:00:37.834Z,99501
2017-08-06T08:03:05.899Z,99493
2017-08-06T08:05:33.977Z,99490
2017-08-06T08:08:02.082Z,99495
2017-08-06T08:10:30.151Z,99489
2017-08-06T08:12:58.214Z,99494
2017-08-06T08:15:26.306Z,99482
2017-08-06T08:17:54.394Z,99480
2017-08-06T08:20:22.450Z,99480
2017-08-06T08:22:51.302Z,99481
2017-08-06T08:25:19.377Z,99483
2017-08-06T08:27:47.450Z,99490
2017-08-06T08:30:15.535Z,99480
2017-08-06T08:32:43.603Z,99487
2017-08-06T08:35:11.751Z,99487
2017-08-06T08:37:39.818Z,99475
2017-08-06T08:40:07.890Z,99483
2017-08-06T08:42:36.015Z,99483
2017-08-06T08:45:04.076Z,99475
2017-08-06T08:47:32.143Z,99484
2017-08-06T08:50:00.215Z,99476
2017-08-06T08:52:28.387Z,99477
2017-08-06T08:54:56.475Z,99483
2017-08-06T08:57:24.539Z,99481
2017-08-06T08:59:52.632Z,99478
2017-08-06T09:02:21.467Z,99476
2017-08-06T09:04:49.532Z,99474
2017-08-06T09:07:17.608Z,99481
2017-08-06T09:09:45.699Z,99477
2017-08-06T09:12:13.779Z,99476
2017-08-06T09:14:41.839Z,99484
2017-08-06T09:17:09.935Z,99478
2017-08-06T09:19:38.002Z,99476
2017-08-06T09:22:06.148Z,99481
2017-08-06T09:24:34.251Z,99479
2017-08-06T09:27:02.354Z,99479
2017-08-06T09:29:31.241Z,99469
2017-08-06T09:32:00.072Z,99468
2017-08-06T09:34:28.156Z,99463
2017-08-06T09:36:56.236Z,99455
2017-08-06T09:39:24.310Z,99461
2017-08-06T09:41:52.383Z,99460
2017-08-06T09:44:20.489Z,99447
2017-08-06T09:46:49.321Z,99447
2017-08-06T09:49:17.414Z,99449
2017-08-06T09:51:45.482Z,99449
2017-08-06T09:54:13.571Z,99447
2017-08-06T09:56:41.657Z,99444
2017-08-06T09:59:09.727Z,99455
2017-08-06T10:01:37.824Z,99449
2017-08-06T10:04:06.648Z,99458
2017-08-06T10:06:34.760Z,99448
2017-08-06T10:09:02.838Z,99440
2017-08-06T10:11:30.906Z,99445
2017-08-06T10:13:58.979Z,99444
2017-08-06T10:16:27.046Z,99450
2017-08-06T10:18:55.146Z,99447
2017-08-06T10:21:24.007Z,99437
2017-08-06T10:23:52.094Z,99440
2017-08-06T10:26:20.439Z,99437
2017-08-06T10:28:48.497Z,99430
2017-08-06T10:31:16.575Z,99436
2017-08-06T10:33:44.643Z,99431
2017-08-06T10:36:12.723Z,99446
2017-08-06T10:38:40.787Z,99426
2017-08-06T10:41:08.858Z,99434
2017-08-06T10:43:36.966Z,99448
2017-08-06T10:46:05.110Z,99438
2017-08-06T10:48:33.191Z,99441
2017-08-06T10:51:01.249Z,99443
2017-08-06T10:53:29.335Z,99443
2017-08-06T10:55:57.411Z,99445
2017-08-06T10:58:25.480Z,99445
2017-08-06T11:00:53.563Z,99442
2017-08-06T11:03:21.925Z,99441
2017-08-06T11:05:49.996Z,99441
2017-08-06T11:08:18.071Z,99441
2017-08-06T11:10:46.164Z,99447
2017-08-06T11:13:14.230Z,99441
2017-08-06T11:15:42.307Z,99434
2017-08-06T11:18:10.400Z,99446
2017-08-06T11:20:38.457Z,99447
2017-08-06T11:23:06.534Z,99457
2017-08-06T11:25:34.590Z,99450
2017-08-06T11:28:02.683Z,99454
2017-08-06T11:30:30.758Z,99447
2017-08-06T11:32:58.832Z,99452
2017-08-06T11:35:30.905Z,99445
2017-08-06T11:37:58.990Z,99449
2017-08-06T11:40:27.831Z,99451
2017-08-06T11:42:55.917Z,99438
2017-08-06T11:45:24.018Z,99444
2017-08-06T11:47:52.087Z,99454
2017-08-06T11:50:20.151Z,99455
2017-08-06T11:52:49.279Z,99452
2017-08-06T11:55:18.503Z,99438
2017-08-06T11:57:46.580Z,99433
2017-08-06T12:00:14.656Z,99422
2017-08-06T12:02:42.731Z,99414
2017-08-06T12:05:11.100Z,99409
2017-08-06T12:07:39.175Z,99416
2017-08-06T12:10:07.244Z,99421
2017-08-06T12:12:35.317Z,99420
2017-08-06T12:15:03.394Z,99419
2017-08-06T12:17:31.471Z,99422
2017-08-06T12:19:59.539Z,99427
2017-08-06T12:22:27.683Z,99427
2017-08-06T12:24:55.747Z,99428
2017-08-06T12:27:23.826Z,99434
2017-08-06T12:29:51.898Z,99440
2017-08-06T12:32:20.718Z,99448
2017-08-06T12:34:48.813Z,99446
2017-08-06T12:37:16.870Z,99449
2017-08-06T12:39:44.970Z,99447
2017-08-06T12:42:13.036Z,99456
2017-08-06T12:44:41.101Z,99454
2017-08-06T12:47:09.175Z,99454
2017-08-06T12:49:37.275Z,99451
2017-08-06T12:52:05.372Z,99450
2017-08-06T12:54:39.047Z,99448
2017-08-06T12:57:07.307Z,99434
2017-08-06T12:59:35.368Z,99442
2017-08-06T13:02:04.052Z,99442
2017-08-06T13:04:32.955Z,99436
2017-08-06T13:07:01.028Z,99424
2017-08-06T13:09:39.011Z,99424
